sensor_id;sensor_type;location;lat;lon;timestamp;pressure;altitude;pressure_sealevel;temperature;humidity
70198;BME280;57582;-34.876;138.628;2023-02-16T00:00:38;100326;;;34.62;13.52
70198;BME280;57582;-34.876;138.628;2023-02-16T00:03:37;100325;;;34.75;12.67
70198;BME280;57582;-34.876;138.628;2023-02-16T00:06:38;100327;;;34.90;12.60
70198;BME280;57582;-34.876;138.628;2023-02-16T00:09:37;100327;;;35.05;12.73
70198;BME280;57582;-34.876;138.628;2023-02-16T00:12:38;100330;;;35.12;12.33
70198;BME280;57582;-34.876;138.628;2023-02-16T00:15:38;100334;;;35.27;11.64
70198;BME280;57582;-34.876;138.628;2023-02-16T00:18:38;100344;;;35.43;12.40
70198;BME280;57582;-34.876;138.628;2023-02-16T00:21:37;100333;;;35.58;11.60
70198;BME280;57582;-34.876;138.628;2023-02-16T00:24:38;100340;;;35.77;11.60
70198;BME280;57582;-34.876;138.628;2023-02-16T00:27:37;100346;;;35.91;12.55
70198;BME280;57582;-34.876;138.628;2023-02-16T00:30:38;100345;;;36.23;12.32
70198;BME280;57582;-34.876;138.628;2023-02-16T00:33:37;100336;;;36.44;10.88
70198;BME280;57582;-34.876;138.628;2023-02-16T00:36:38;100337;;;36.58;11.22
70198;BME280;57582;-34.876;138.628;2023-02-16T00:39:39;100348;;;36.72;11.59
70198;BME280;57582;-34.876;138.628;2023-02-16T00:42:38;100347;;;36.89;11.25
70198;BME280;57582;-34.876;138.628;2023-02-16T00:45:37;100342;;;36.96;11.03
70198;BME280;57582;-34.876;138.628;2023-02-16T00:48:38;100348;;;36.93;10.58
70198;BME280;57582;-34.876;138.628;2023-02-16T00:51:38;100344;;;36.67;10.67
70198;BME280;57582;-34.876;138.628;2023-02-16T00:54:38;100335;;;36.65;11.46
70198;BME280;57582;-34.876;138.628;2023-02-16T00:57:39;100340;;;36.69;11.84
70198;BME280;57582;-34.876;138.628;2023-02-16T01:00:41;100342;;;36.65;11.56
70198;BME280;57582;-34.876;138.628;2023-02-16T01:03:38;100336;;;36.75;11.34
70198;BME280;57582;-34.876;138.628;2023-02-16T01:06:38;100343;;;36.84;11.21
70198;BME280;57582;-34.876;138.628;2023-02-16T01:09:38;100343;;;36.95;11.11
70198;BME280;57582;-34.876;138.628;2023-02-16T01:12:38;100344;;;37.09;11.62
70198;BME280;57582;-34.876;138.628;2023-02-16T01:15:38;100349;;;37.19;11.06
70198;BME280;57582;-34.876;138.628;2023-02-16T01:18:38;100340;;;37.35;11.07
70198;BME280;57582;-34.876;138.628;2023-02-16T01:21:38;100345;;;37.32;10.97
70198;BME280;57582;-34.876;138.628;2023-02-16T01:24:38;100343;;;37.47;11.29
70198;BME280;57582;-34.876;138.628;2023-02-16T01:27:38;100348;;;37.46;10.99
70198;BME280;57582;-34.876;138.628;2023-02-16T01:30:38;100350;;;37.65;11.15
70198;BME280;57582;-34.876;138.628;2023-02-16T01:33:38;100342;;;37.64;11.01
70198;BME280;57582;-34.876;138.628;2023-02-16T01:36:40;100337;;;37.62;10.83
70198;BME280;57582;-34.876;138.628;2023-02-16T01:39:38;100343;;;37.62;10.16
70198;BME280;57582;-34.876;138.628;2023-02-16T01:42:48;100340;;;37.74;9.98
70198;BME280;57582;-34.876;138.628;2023-02-16T01:45:39;100333;;;37.87;9.46
70198;BME280;57582;-34.876;138.628;2023-02-16T01:48:39;100332;;;37.83;10.10
70198;BME280;57582;-34.876;138.628;2023-02-16T01:51:52;100330;;;37.77;10.32
70198;BME280;57582;-34.876;138.628;2023-02-16T01:57:41;100317;;;37.95;9.31
70198;BME280;57582;-34.876;138.628;2023-02-16T02:03:38;100306;;;38.23;9.58
70198;BME280;57582;-34.876;138.628;2023-02-16T02:06:38;100297;;;38.24;9.10
70198;BME280;57582;-34.876;138.628;2023-02-16T02:09:39;100293;;;38.36;9.63
70198;BME280;57582;-34.876;138.628;2023-02-16T02:12:45;100288;;;38.59;9.83
70198;BME280;57582;-34.876;138.628;2023-02-16T02:15:38;100289;;;38.63;9.58
70198;BME280;57582;-34.876;138.628;2023-02-16T02:18:38;100284;;;38.70;9.41
70198;BME280;57582;-34.876;138.628;2023-02-16T02:27:38;100279;;;38.86;9.04
70198;BME280;57582;-34.876;138.628;2023-02-16T02:33:46;100290;;;38.81;9.29
70198;BME280;57582;-34.876;138.628;2023-02-16T02:36:43;100271;;;38.79;8.98
70198;BME280;57582;-34.876;138.628;2023-02-16T02:39:48;100275;;;38.87;9.12
70198;BME280;57582;-34.876;138.628;2023-02-16T02:42:40;100276;;;38.91;9.17
70198;BME280;57582;-34.876;138.628;2023-02-16T02:45:44;100267;;;39.12;8.40
70198;BME280;57582;-34.876;138.628;2023-02-16T02:48:39;100270;;;39.29;8.87
70198;BME280;57582;-34.876;138.628;2023-02-16T02:51:38;100272;;;39.25;8.85
70198;BME280;57582;-34.876;138.628;2023-02-16T02:54:38;100267;;;39.31;9.11
70198;BME280;57582;-34.876;138.628;2023-02-16T02:57:39;100268;;;39.31;8.78
70198;BME280;57582;-34.876;138.628;2023-02-16T03:00:39;100262;;;39.28;8.93
70198;BME280;57582;-34.876;138.628;2023-02-16T03:03:40;100253;;;39.32;8.99
70198;BME280;57582;-34.876;138.628;2023-02-16T03:06:39;100248;;;39.44;8.39
70198;BME280;57582;-34.876;138.628;2023-02-16T03:09:38;100249;;;39.56;8.98
70198;BME280;57582;-34.876;138.628;2023-02-16T03:12:38;100249;;;39.66;8.59
70198;BME280;57582;-34.876;138.628;2023-02-16T03:15:38;100243;;;39.68;8.29
70198;BME280;57582;-34.876;138.628;2023-02-16T03:18:39;100239;;;39.62;8.53
70198;BME280;57582;-34.876;138.628;2023-02-16T03:21:38;100235;;;39.66;8.50
70198;BME280;57582;-34.876;138.628;2023-02-16T03:24:38;100231;;;39.54;8.49
70198;BME280;57582;-34.876;138.628;2023-02-16T03:27:38;100232;;;39.58;8.63
70198;BME280;57582;-34.876;138.628;2023-02-16T03:30:38;100230;;;39.71;8.97
70198;BME280;57582;-34.876;138.628;2023-02-16T03:33:38;100215;;;39.92;8.51
70198;BME280;57582;-34.876;138.628;2023-02-16T03:36:40;100215;;;40.14;8.23
70198;BME280;57582;-34.876;138.628;2023-02-16T03:39:38;100209;;;40.17;8.42
70198;BME280;57582;-34.876;138.628;2023-02-16T03:42:38;100222;;;40.35;7.92
70198;BME280;57582;-34.876;138.628;2023-02-16T03:45:38;100217;;;40.11;7.94
70198;BME280;57582;-34.876;138.628;2023-02-16T03:48:38;100194;;;39.76;8.29
70198;BME280;57582;-34.876;138.628;2023-02-16T03:51:38;100203;;;39.75;8.53
70198;BME280;57582;-34.876;138.628;2023-02-16T03:54:38;100196;;;39.61;8.84
70198;BME280;57582;-34.876;138.628;2023-02-16T03:57:38;100196;;;39.49;9.27
70198;BME280;57582;-34.876;138.628;2023-02-16T04:00:38;100194;;;39.41;8.33
70198;BME280;57582;-34.876;138.628;2023-02-16T04:03:38;100193;;;39.48;9.35
70198;BME280;57582;-34.876;138.628;2023-02-16T04:06:39;100188;;;39.53;8.49
70198;BME280;57582;-34.876;138.628;2023-02-16T04:09:38;100183;;;39.42;8.23
70198;BME280;57582;-34.876;138.628;2023-02-16T04:12:38;100191;;;39.43;8.56
70198;BME280;57582;-34.876;138.628;2023-02-16T04:15:38;100178;;;39.45;8.71
70198;BME280;57582;-34.876;138.628;2023-02-16T04:18:38;100174;;;39.46;8.57
70198;BME280;57582;-34.876;138.628;2023-02-16T04:21:38;100172;;;39.45;8.07
70198;BME280;57582;-34.876;138.628;2023-02-16T04:24:38;100163;;;39.60;8.66
70198;BME280;57582;-34.876;138.628;2023-02-16T04:27:38;100161;;;39.94;8.66
70198;BME280;57582;-34.876;138.628;2023-02-16T04:30:38;100160;;;40.21;8.72
70198;BME280;57582;-34.876;138.628;2023-02-16T04:33:38;100151;;;40.58;7.87
70198;BME280;57582;-34.876;138.628;2023-02-16T04:36:38;100145;;;40.78;7.75
70198;BME280;57582;-34.876;138.628;2023-02-16T04:39:38;100149;;;41.00;7.89
70198;BME280;57582;-34.876;138.628;2023-02-16T04:42:39;100134;;;41.03;7.75
70198;BME280;57582;-34.876;138.628;2023-02-16T04:45:38;100139;;;41.10;7.76
70198;BME280;57582;-34.876;138.628;2023-02-16T04:48:39;100125;;;41.12;7.91
70198;BME280;57582;-34.876;138.628;2023-02-16T04:51:38;100117;;;41.00;7.53
70198;BME280;57582;-34.876;138.628;2023-02-16T04:54:38;100124;;;40.90;7.98
70198;BME280;57582;-34.876;138.628;2023-02-16T04:57:38;100125;;;40.73;7.70
70198;BME280;57582;-34.876;138.628;2023-02-16T05:00:38;100126;;;40.56;8.35
70198;BME280;57582;-34.876;138.628;2023-02-16T05:03:38;100117;;;40.79;8.05
70198;BME280;57582;-34.876;138.628;2023-02-16T05:06:38;100115;;;40.92;7.67
70198;BME280;57582;-34.876;138.628;2023-02-16T05:09:38;100114;;;40.59;8.04
70198;BME280;57582;-34.876;138.628;2023-02-16T05:12:38;100112;;;40.41;7.87
70198;BME280;57582;-34.876;138.628;2023-02-16T05:15:38;100113;;;40.31;8.25
70198;BME280;57582;-34.876;138.628;2023-02-16T05:18:38;100104;;;40.15;8.52
70198;BME280;57582;-34.876;138.628;2023-02-16T05:21:38;100108;;;40.02;8.36
70198;BME280;57582;-34.876;138.628;2023-02-16T05:24:39;100102;;;40.08;8.88
70198;BME280;57582;-34.876;138.628;2023-02-16T05:27:38;100095;;;40.19;8.39
70198;BME280;57582;-34.876;138.628;2023-02-16T05:30:39;100104;;;40.32;8.47
70198;BME280;57582;-34.876;138.628;2023-02-16T05:33:38;100094;;;40.21;8.60
70198;BME280;57582;-34.876;138.628;2023-02-16T05:36:38;100102;;;40.10;8.55
70198;BME280;57582;-34.876;138.628;2023-02-16T05:39:38;100098;;;40.04;8.70
70198;BME280;57582;-34.876;138.628;2023-02-16T05:42:39;100090;;;39.99;8.09
70198;BME280;57582;-34.876;138.628;2023-02-16T05:45:38;100095;;;40.02;8.62
70198;BME280;57582;-34.876;138.628;2023-02-16T05:48:38;100085;;;40.20;8.62
70198;BME280;57582;-34.876;138.628;2023-02-16T05:51:38;100078;;;40.41;8.13
70198;BME280;57582;-34.876;138.628;2023-02-16T05:54:38;100080;;;40.71;8.26
70198;BME280;57582;-34.876;138.628;2023-02-16T05:57:38;100077;;;40.85;8.10
70198;BME280;57582;-34.876;138.628;2023-02-16T06:00:39;100072;;;41.05;8.31
70198;BME280;57582;-34.876;138.628;2023-02-16T06:03:38;100069;;;41.07;8.30
70198;BME280;57582;-34.876;138.628;2023-02-16T06:06:38;100076;;;41.07;8.35
70198;BME280;57582;-34.876;138.628;2023-02-16T06:09:38;100078;;;41.07;8.26
70198;BME280;57582;-34.876;138.628;2023-02-16T06:12:39;100062;;;41.13;8.19
70198;BME280;57582;-34.876;138.628;2023-02-16T06:15:38;100054;;;41.22;7.81
70198;BME280;57582;-34.876;138.628;2023-02-16T06:18:38;100060;;;41.41;8.11
70198;BME280;57582;-34.876;138.628;2023-02-16T06:21:39;100052;;;41.47;8.20
70198;BME280;57582;-34.876;138.628;2023-02-16T06:24:38;100049;;;41.54;8.28
70198;BME280;57582;-34.876;138.628;2023-02-16T06:27:38;100056;;;41.64;8.19
70198;BME280;57582;-34.876;138.628;2023-02-16T06:30:38;100049;;;41.84;9.06
70198;BME280;57582;-34.876;138.628;2023-02-16T06:33:38;100048;;;41.97;8.21
70198;BME280;57582;-34.876;138.628;2023-02-16T06:36:38;100040;;;42.15;7.85
70198;BME280;57582;-34.876;138.628;2023-02-16T06:39:38;100045;;;42.13;7.93
70198;BME280;57582;-34.876;138.628;2023-02-16T06:42:39;100043;;;41.94;7.70
70198;BME280;57582;-34.876;138.628;2023-02-16T06:45:38;100052;;;41.68;7.95
70198;BME280;57582;-34.876;138.628;2023-02-16T06:48:39;100053;;;41.33;8.07
70198;BME280;57582;-34.876;138.628;2023-02-16T06:51:38;100047;;;40.98;8.30
70198;BME280;57582;-34.876;138.628;2023-02-16T06:54:38;100052;;;40.79;8.56
70198;BME280;57582;-34.876;138.628;2023-02-16T06:57:38;100044;;;40.65;8.65
70198;BME280;57582;-34.876;138.628;2023-02-16T07:00:39;100047;;;40.59;8.76
70198;BME280;57582;-34.876;138.628;2023-02-16T07:03:38;100046;;;40.54;8.89
70198;BME280;57582;-34.876;138.628;2023-02-16T07:06:39;100038;;;40.49;8.76
70198;BME280;57582;-34.876;138.628;2023-02-16T07:09:38;100045;;;40.41;9.65
70198;BME280;57582;-34.876;138.628;2023-02-16T07:12:39;100042;;;40.28;9.08
70198;BME280;57582;-34.876;138.628;2023-02-16T07:15:38;100041;;;40.17;9.08
70198;BME280;57582;-34.876;138.628;2023-02-16T07:18:38;100041;;;40.02;9.04
70198;BME280;57582;-34.876;138.628;2023-02-16T07:21:38;100030;;;39.90;8.95
70198;BME280;57582;-34.876;138.628;2023-02-16T07:24:39;100028;;;39.85;9.56
70198;BME280;57582;-34.876;138.628;2023-02-16T07:27:38;100025;;;39.76;9.66
70198;BME280;57582;-34.876;138.628;2023-02-16T07:30:39;100033;;;39.60;9.96
70198;BME280;57582;-34.876;138.628;2023-02-16T07:33:39;100035;;;39.46;9.10
70198;BME280;57582;-34.876;138.628;2023-02-16T07:36:39;100029;;;39.37;9.84
70198;BME280;57582;-34.876;138.628;2023-02-16T07:39:38;100031;;;39.27;10.03
70198;BME280;57582;-34.876;138.628;2023-02-16T07:42:38;100034;;;39.16;10.15
70198;BME280;57582;-34.876;138.628;2023-02-16T07:48:39;100044;;;38.97;10.25
70198;BME280;57582;-34.876;138.628;2023-02-16T07:51:38;100048;;;38.82;9.81
70198;BME280;57582;-34.876;138.628;2023-02-16T07:54:39;100051;;;38.68;10.01
70198;BME280;57582;-34.876;138.628;2023-02-16T07:57:38;100050;;;38.59;10.39
70198;BME280;57582;-34.876;138.628;2023-02-16T08:00:39;100054;;;38.50;10.40
70198;BME280;57582;-34.876;138.628;2023-02-16T08:03:39;100062;;;38.44;10.64
70198;BME280;57582;-34.876;138.628;2023-02-16T08:06:39;100066;;;38.34;10.61
70198;BME280;57582;-34.876;138.628;2023-02-16T08:09:38;100061;;;38.21;10.51
70198;BME280;57582;-34.876;138.628;2023-02-16T08:12:39;100064;;;38.05;10.37
70198;BME280;57582;-34.876;138.628;2023-02-16T08:15:41;100061;;;37.91;10.39
70198;BME280;57582;-34.876;138.628;2023-02-16T08:18:39;100061;;;37.82;10.59
70198;BME280;57582;-34.876;138.628;2023-02-16T08:21:38;100059;;;37.69;10.71
70198;BME280;57582;-34.876;138.628;2023-02-16T08:24:39;100053;;;37.65;10.76
70198;BME280;57582;-34.876;138.628;2023-02-16T08:27:38;100058;;;37.56;11.00
70198;BME280;57582;-34.876;138.628;2023-02-16T08:30:39;100052;;;37.40;11.02
70198;BME280;57582;-34.876;138.628;2023-02-16T08:33:39;100056;;;37.31;11.14
70198;BME280;57582;-34.876;138.628;2023-02-16T08:36:39;100045;;;37.25;11.22
70198;BME280;57582;-34.876;138.628;2023-02-16T08:39:38;100046;;;37.14;11.22
70198;BME280;57582;-34.876;138.628;2023-02-16T08:42:39;100051;;;37.10;11.83
70198;BME280;57582;-34.876;138.628;2023-02-16T08:45:42;100074;;;37.05;12.03
70198;BME280;57582;-34.876;138.628;2023-02-16T08:48:39;100076;;;36.94;11.87
70198;BME280;57582;-34.876;138.628;2023-02-16T08:51:40;100079;;;36.63;17.12
70198;BME280;57582;-34.876;138.628;2023-02-16T08:54:39;100084;;;36.08;19.83
70198;BME280;57582;-34.876;138.628;2023-02-16T08:57:38;100078;;;35.33;19.78
70198;BME280;57582;-34.876;138.628;2023-02-16T09:00:39;100086;;;34.86;18.17
70198;BME280;57582;-34.876;138.628;2023-02-16T09:03:39;100093;;;34.73;17.72
70198;BME280;57582;-34.876;138.628;2023-02-16T09:06:40;100096;;;34.73;18.67
70198;BME280;57582;-34.876;138.628;2023-02-16T09:09:38;100108;;;34.81;19.50
70198;BME280;57582;-34.876;138.628;2023-02-16T09:12:39;100130;;;34.85;18.75
70198;BME280;57582;-34.876;138.628;2023-02-16T09:15:39;100119;;;34.93;18.85
70198;BME280;57582;-34.876;138.628;2023-02-16T09:18:39;100098;;;35.01;18.87
70198;BME280;57582;-34.876;138.628;2023-02-16T09:21:38;100082;;;34.93;18.97
70198;BME280;57582;-34.876;138.628;2023-02-16T09:24:39;100078;;;34.78;18.70
70198;BME280;57582;-34.876;138.628;2023-02-16T09:27:38;100102;;;34.68;18.75
70198;BME280;57582;-34.876;138.628;2023-02-16T09:30:39;100111;;;34.67;18.38
70198;BME280;57582;-34.876;138.628;2023-02-16T09:33:41;100106;;;34.57;18.49
70198;BME280;57582;-34.876;138.628;2023-02-16T09:36:39;100099;;;34.63;18.63
70198;BME280;57582;-34.876;138.628;2023-02-16T09:39:38;100099;;;34.53;18.66
70198;BME280;57582;-34.876;138.628;2023-02-16T09:45:41;100121;;;34.56;20.17
70198;BME280;57582;-34.876;138.628;2023-02-16T09:48:41;100124;;;34.58;20.96
70198;BME280;57582;-34.876;138.628;2023-02-16T09:51:39;100117;;;34.61;19.82
70198;BME280;57582;-34.876;138.628;2023-02-16T09:54:55;100128;;;34.61;20.91
70198;BME280;57582;-34.876;138.628;2023-02-16T10:00:42;100142;;;34.62;20.76
70198;BME280;57582;-34.876;138.628;2023-02-16T10:06:56;100154;;;34.73;20.59
70198;BME280;57582;-34.876;138.628;2023-02-16T10:09:39;100162;;;34.74;20.88
70198;BME280;57582;-34.876;138.628;2023-02-16T10:12:40;100163;;;34.75;21.21
70198;BME280;57582;-34.876;138.628;2023-02-16T10:15:39;100161;;;34.74;21.61
70198;BME280;57582;-34.876;138.628;2023-02-16T10:18:39;100171;;;34.73;21.82
70198;BME280;57582;-34.876;138.628;2023-02-16T10:21:39;100169;;;34.70;21.58
70198;BME280;57582;-34.876;138.628;2023-02-16T10:25:07;100185;;;34.54;22.31
70198;BME280;57582;-34.876;138.628;2023-02-16T10:27:40;100181;;;34.21;22.33
70198;BME280;57582;-34.876;138.628;2023-02-16T10:30:40;100201;;;34.14;23.13
70198;BME280;57582;-34.876;138.628;2023-02-16T10:39:45;100242;;;33.76;22.58
70198;BME280;57582;-34.876;138.628;2023-02-16T10:45:48;100235;;;33.23;24.65
70198;BME280;57582;-34.876;138.628;2023-02-16T10:48:39;100231;;;32.90;25.05
70198;BME280;57582;-34.876;138.628;2023-02-16T10:51:39;100236;;;32.61;25.42
70198;BME280;57582;-34.876;138.628;2023-02-16T10:54:39;100243;;;32.50;25.69
70198;BME280;57582;-34.876;138.628;2023-02-16T10:57:39;100247;;;32.52;25.72
70198;BME280;57582;-34.876;138.628;2023-02-16T11:03:43;100239;;;32.58;25.86
70198;BME280;57582;-34.876;138.628;2023-02-16T11:06:39;100232;;;32.47;25.51
70198;BME280;57582;-34.876;138.628;2023-02-16T11:09:40;100234;;;32.58;25.61
70198;BME280;57582;-34.876;138.628;2023-02-16T11:12:40;100219;;;32.64;25.40
70198;BME280;57582;-34.876;138.628;2023-02-16T11:15:39;100193;;;32.52;25.65
70198;BME280;57582;-34.876;138.628;2023-02-16T11:18:40;100188;;;32.09;26.02
70198;BME280;57582;-34.876;138.628;2023-02-16T11:21:54;100215;;;32.19;26.18
70198;BME280;57582;-34.876;138.628;2023-02-16T11:24:39;100216;;;32.33;26.11
70198;BME280;57582;-34.876;138.628;2023-02-16T11:27:48;100228;;;32.32;25.84
70198;BME280;57582;-34.876;138.628;2023-02-16T11:30:39;100226;;;32.46;26.60
70198;BME280;57582;-34.876;138.628;2023-02-16T11:33:39;100231;;;32.51;25.49
70198;BME280;57582;-34.876;138.628;2023-02-16T11:36:41;100252;;;32.52;26.48
70198;BME280;57582;-34.876;138.628;2023-02-16T11:39:39;100238;;;32.48;25.62
70198;BME280;57582;-34.876;138.628;2023-02-16T11:42:44;100219;;;32.51;24.92
70198;BME280;57582;-34.876;138.628;2023-02-16T11:45:39;100215;;;32.50;24.16
70198;BME280;57582;-34.876;138.628;2023-02-16T11:48:39;100241;;;32.54;24.32
70198;BME280;57582;-34.876;138.628;2023-02-16T11:51:39;100227;;;32.49;25.12
70198;BME280;57582;-34.876;138.628;2023-02-16T11:54:46;100248;;;32.41;25.23
70198;BME280;57582;-34.876;138.628;2023-02-16T11:57:39;100227;;;32.41;25.78
70198;BME280;57582;-34.876;138.628;2023-02-16T12:00:40;100224;;;31.76;30.07
70198;BME280;57582;-34.876;138.628;2023-02-16T12:06:44;100250;;;31.31;33.52
70198;BME280;57582;-34.876;138.628;2023-02-16T12:09:58;100226;;;31.03;30.42
70198;BME280;57582;-34.876;138.628;2023-02-16T12:12:42;100239;;;31.00;30.15
70198;BME280;57582;-34.876;138.628;2023-02-16T12:21:40;100207;;;30.91;31.43
70198;BME280;57582;-34.876;138.628;2023-02-16T12:24:44;100206;;;31.04;31.42
70198;BME280;57582;-34.876;138.628;2023-02-16T12:27:49;100210;;;31.17;31.63
70198;BME280;57582;-34.876;138.628;2023-02-16T12:33:40;100221;;;31.40;31.57
70198;BME280;57582;-34.876;138.628;2023-02-16T12:45:39;100211;;;31.65;31.25
70198;BME280;57582;-34.876;138.628;2023-02-16T12:51:44;100214;;;31.60;30.62
70198;BME280;57582;-34.876;138.628;2023-02-16T12:54:41;100214;;;31.53;30.74
70198;BME280;57582;-34.876;138.628;2023-02-16T12:57:40;100210;;;31.44;30.60
70198;BME280;57582;-34.876;138.628;2023-02-16T13:03:43;100188;;;31.44;30.28
70198;BME280;57582;-34.876;138.628;2023-02-16T13:09:40;100183;;;31.43;30.19
70198;BME280;57582;-34.876;138.628;2023-02-16T13:12:41;100197;;;31.39;30.10
70198;BME280;57582;-34.876;138.628;2023-02-16T13:15:41;100209;;;31.40;30.54
70198;BME280;57582;-34.876;138.628;2023-02-16T13:18:39;100221;;;31.34;31.04
70198;BME280;57582;-34.876;138.628;2023-02-16T13:24:45;100236;;;31.33;31.42
70198;BME280;57582;-34.876;138.628;2023-02-16T13:36:42;100219;;;31.78;29.36
70198;BME280;57582;-34.876;138.628;2023-02-16T13:45:40;100216;;;31.61;29.80
70198;BME280;57582;-34.876;138.628;2023-02-16T13:48:47;100226;;;31.67;29.73
70198;BME280;57582;-34.876;138.628;2023-02-16T13:51:40;100230;;;31.70;29.83
70198;BME280;57582;-34.876;138.628;2023-02-16T13:54:40;100222;;;31.68;29.96
70198;BME280;57582;-34.876;138.628;2023-02-16T14:00:41;100229;;;31.32;30.47
70198;BME280;57582;-34.876;138.628;2023-02-16T14:03:39;100236;;;31.33;30.55
70198;BME280;57582;-34.876;138.628;2023-02-16T14:06:40;100224;;;31.27;30.57
70198;BME280;57582;-34.876;138.628;2023-02-16T14:12:39;100211;;;31.07;30.99
70198;BME280;57582;-34.876;138.628;2023-02-16T14:15:48;100220;;;31.04;31.12
70198;BME280;57582;-34.876;138.628;2023-02-16T14:18:42;100226;;;31.06;31.28
70198;BME280;57582;-34.876;138.628;2023-02-16T14:21:40;100231;;;30.99;31.39
70198;BME280;57582;-34.876;138.628;2023-02-16T14:24:39;100223;;;30.96;31.61
70198;BME280;57582;-34.876;138.628;2023-02-16T14:27:45;100220;;;30.85;31.83
70198;BME280;57582;-34.876;138.628;2023-02-16T14:39:39;100220;;;30.84;32.56
70198;BME280;57582;-34.876;138.628;2023-02-16T14:42:51;100221;;;30.66;33.13
70198;BME280;57582;-34.876;138.628;2023-02-16T14:45:49;100224;;;30.57;33.40
70198;BME280;57582;-34.876;138.628;2023-02-16T14:48:48;100218;;;30.47;34.45
70198;BME280;57582;-34.876;138.628;2023-02-16T15:03:41;100194;;;30.03;37.34
70198;BME280;57582;-34.876;138.628;2023-02-16T15:06:40;100193;;;29.99;38.77
70198;BME280;57582;-34.876;138.628;2023-02-16T15:09:40;100202;;;29.99;39.54
70198;BME280;57582;-34.876;138.628;2023-02-16T15:12:39;100181;;;30.00;40.27
70198;BME280;57582;-34.876;138.628;2023-02-16T15:15:47;100187;;;30.04;40.53
70198;BME280;57582;-34.876;138.628;2023-02-16T15:18:42;100192;;;29.96;41.19
70198;BME280;57582;-34.876;138.628;2023-02-16T15:21:39;100185;;;29.94;41.31
70198;BME280;57582;-34.876;138.628;2023-02-16T15:24:40;100196;;;29.92;42.49
70198;BME280;57582;-34.876;138.628;2023-02-16T15:27:39;100201;;;29.82;43.26
70198;BME280;57582;-34.876;138.628;2023-02-16T15:30:42;100214;;;29.76;44.13
70198;BME280;57582;-34.876;138.628;2023-02-16T15:33:40;100213;;;29.74;44.25
70198;BME280;57582;-34.876;138.628;2023-02-16T15:36:41;100213;;;29.74;44.18
70198;BME280;57582;-34.876;138.628;2023-02-16T15:39:39;100202;;;29.76;44.41
70198;BME280;57582;-34.876;138.628;2023-02-16T15:42:40;100190;;;29.74;43.91
70198;BME280;57582;-34.876;138.628;2023-02-16T15:45:39;100193;;;29.66;43.85
70198;BME280;57582;-34.876;138.628;2023-02-16T15:48:39;100202;;;29.68;43.64
70198;BME280;57582;-34.876;138.628;2023-02-16T15:51:39;100203;;;29.71;43.59
70198;BME280;57582;-34.876;138.628;2023-02-16T15:54:39;100221;;;29.62;43.64
70198;BME280;57582;-34.876;138.628;2023-02-16T15:57:39;100227;;;29.57;43.90
70198;BME280;57582;-34.876;138.628;2023-02-16T16:00:40;100225;;;29.49;44.18
70198;BME280;57582;-34.876;138.628;2023-02-16T16:03:41;100234;;;29.46;44.51
70198;BME280;57582;-34.876;138.628;2023-02-16T16:06:41;100222;;;29.44;45.16
70198;BME280;57582;-34.876;138.628;2023-02-16T16:09:39;100220;;;29.22;46.57
70198;BME280;57582;-34.876;138.628;2023-02-16T16:12:40;100224;;;29.11;47.61
70198;BME280;57582;-34.876;138.628;2023-02-16T16:15:40;100226;;;28.95;48.33
70198;BME280;57582;-34.876;138.628;2023-02-16T16:18:41;100231;;;28.81;49.42
70198;BME280;57582;-34.876;138.628;2023-02-16T16:21:48;100225;;;28.71;49.55
70198;BME280;57582;-34.876;138.628;2023-02-16T16:24:39;100229;;;28.67;50.07
70198;BME280;57582;-34.876;138.628;2023-02-16T16:27:45;100233;;;28.64;50.28
70198;BME280;57582;-34.876;138.628;2023-02-16T16:30:40;100221;;;28.55;50.59
70198;BME280;57582;-34.876;138.628;2023-02-16T16:39:39;100201;;;28.46;51.08
70198;BME280;57582;-34.876;138.628;2023-02-16T16:42:46;100209;;;28.44;51.37
70198;BME280;57582;-34.876;138.628;2023-02-16T16:45:41;100220;;;28.41;51.02
70198;BME280;57582;-34.876;138.628;2023-02-16T16:48:41;100230;;;28.38;50.83
70198;BME280;57582;-34.876;138.628;2023-02-16T16:51:40;100238;;;28.33;51.12
70198;BME280;57582;-34.876;138.628;2023-02-16T16:54:41;100248;;;28.20;50.67
70198;BME280;57582;-34.876;138.628;2023-02-16T16:57:39;100243;;;28.01;50.50
70198;BME280;57582;-34.876;138.628;2023-02-16T17:00:40;100240;;;27.87;50.60
70198;BME280;57582;-34.876;138.628;2023-02-16T17:03:39;100242;;;27.73;50.83
70198;BME280;57582;-34.876;138.628;2023-02-16T17:06:40;100252;;;27.64;50.91
70198;BME280;57582;-34.876;138.628;2023-02-16T17:09:39;100255;;;27.59;50.96
70198;BME280;57582;-34.876;138.628;2023-02-16T17:12:40;100262;;;27.43;51.64
70198;BME280;57582;-34.876;138.628;2023-02-16T17:18:40;100261;;;27.27;52.62
70198;BME280;57582;-34.876;138.628;2023-02-16T17:21:39;100262;;;27.18;53.35
70198;BME280;57582;-34.876;138.628;2023-02-16T17:24:40;100255;;;27.07;53.36
70198;BME280;57582;-34.876;138.628;2023-02-16T17:27:39;100256;;;27.09;53.28
70198;BME280;57582;-34.876;138.628;2023-02-16T17:30:40;100278;;;27.09;53.46
70198;BME280;57582;-34.876;138.628;2023-02-16T17:33:39;100275;;;26.98;53.83
70198;BME280;57582;-34.876;138.628;2023-02-16T17:36:40;100285;;;26.79;54.18
70198;BME280;57582;-34.876;138.628;2023-02-16T17:39:39;100299;;;26.73;54.35
70198;BME280;57582;-34.876;138.628;2023-02-16T17:42:41;100296;;;26.59;54.74
70198;BME280;57582;-34.876;138.628;2023-02-16T17:45:40;100286;;;26.55;54.75